Meteorological Aerodrome Report (METAR)

METAR

Data at: 1040 UTC 17 Nov 2018

METAR for:NVSC (Sola/Vanua Lava Arpt, --, NV)
Text:NVSC 170900Z 00000KT 9999 BKN020 26/23 Q1009 RMK HZ
Temperature: 26.0°C ( 79°F)
Dewpoint: 23.0°C ( 73°F) [RH = 84%]
Pressure (altimeter):29.79 inches Hg (1009.0 mb)
Winds:calm
Visibility:6 or more sm (10+ km)
Ceiling:2000 feet AGL
Clouds: broken clouds at 2000 feet AGL

METAR

Data at: 1040 UTC 17 Nov 2018

METAR for:NVSG (Longana Arpt, --, NV)
Text:NVSG 170900Z AUTO 00003KT //// // NCD 24/20 Q1012 RMK NIL
Temperature: 24.0°C ( 75°F)
Dewpoint: 20.0°C ( 68°F) [RH = 78%]
Pressure (altimeter):29.88 inches Hg (1012.0 mb)
Winds:variable direction winds at 3 MPH (3 knots; 1.5 m/s)
Ceiling:at least 12,000 feet AGL
Clouds:sky clear below 12,000 feet AGL

METAR

Data at: 1040 UTC 17 Nov 2018

METAR for:NVSS (Santo/Pekoa Intl, --, NV)
Text:NVSS 170900Z AUTO 00000KT //// // NCD 22/20 Q1010 RMK NIL
Temperature: 22.0°C ( 72°F)
Dewpoint: 20.0°C ( 68°F) [RH = 88%]
Pressure (altimeter):29.82 inches Hg (1010.0 mb)
Winds:calm
Ceiling:at least 12,000 feet AGL
Clouds:sky clear below 12,000 feet AGL

METAR

Data at: 1040 UTC 17 Nov 2018

METAR for:NVSL (Malekula/Lamap, --, NV)
Text:NVSL 170900Z 21004KT 9999 FEW025 23/19 Q1010 RMK NIL
Temperature: 23.0°C ( 73°F)
Dewpoint: 19.0°C ( 66°F) [RH = 78%]
Pressure (altimeter):29.82 inches Hg (1010.0 mb)
Winds:from the SSW (210 degrees) at 5 MPH (4 knots; 2.1 m/s)
Visibility:6 or more sm (10+ km)
Ceiling:at least 12,000 feet AGL
Clouds: few clouds at 2500 feet AGL

METAR

Data at: 1040 UTC 17 Nov 2018

METAR for:NVSP (Norsup Arpt, --, NV)
Text:No data found

METAR

Data at: 1040 UTC 17 Nov 2018

METAR for:NVVV (Efate/Bauerfield Int, --, NV)
Text:NVVV 171000Z 03004KT 9999 FEW020 20/20 Q1011 RMK NIL
Temperature: 20.0°C ( 68°F)
Dewpoint: 20.0°C ( 68°F) [RH = 100%]
Pressure (altimeter):29.85 inches Hg (1011.0 mb)
Winds:from the NNE (30 degrees) at 5 MPH (4 knots; 2.1 m/s)
Visibility:6 or more sm (10+ km)
Ceiling:at least 12,000 feet AGL
Clouds: few clouds at 2000 feet AGL

METAR

Data at: 1040 UTC 17 Nov 2018

METAR for:NVVW (Tanna Arpt, --, NV)
Text:NVVW 170900Z AUTO 09003KT //// // NCD 22/19 Q1011 RMK NIL
Temperature: 22.0°C ( 72°F)
Dewpoint: 19.0°C ( 66°F) [RH = 83%]
Pressure (altimeter):29.85 inches Hg (1011.0 mb)
Winds:from the E (90 degrees) at 3 MPH (3 knots; 1.5 m/s)
Ceiling:at least 12,000 feet AGL
Clouds:sky clear below 12,000 feet AGL

METAR

Data at: 1040 UTC 17 Nov 2018

METAR for:NVVA (Aneityum/Mystery Isl, --, NV)
Text:NVVA 170900Z 13004KT 9999 BKN020 22/17 Q1011 RMK NIL
Temperature: 22.0°C ( 72°F)
Dewpoint: 17.0°C ( 63°F) [RH = 73%]
Pressure (altimeter):29.85 inches Hg (1011.0 mb)
Winds:from the SE (130 degrees) at 5 MPH (4 knots; 2.1 m/s)
Visibility:6 or more sm (10+ km)
Ceiling:2000 feet AGL
Clouds: broken clouds at 2000 feet AGL

METAR

Data at: 1045 UTC 17 Nov 2018

NVVV 171000Z 03004KT 9999 FEW020 20/20 Q1011 RMK NIL
NVSC 170900Z 00000KT 9999 BKN020 26/23 Q1009 RMK HZ
NVSG 170900Z AUTO 00003KT //// // NCD 24/20 Q1012 RMK NIL
NVSS 170900Z AUTO 00000KT //// // NCD 22/20 Q1010 RMK NIL
NVSL 170900Z 21004KT 9999 FEW025 23/19 Q1010 RMK NIL
No Data available for NVSP
NVVW 170900Z AUTO 09003KT //// // NCD 22/19 Q1011 RMK NIL
NVVA 170900Z 13004KT 9999 BKN020 22/17 Q1011 RMK NIL